Time;durP1;ratioP1;P1;durP2;ratioP2;P2;SDS_P1;SDS_P2;PMS_P1;PMS_P2;Temp;Humidity;BMP_temperature;BMP_pressure;BME280_temperature;BME280_humidity;BME280_pressure;Samples;Min_cycle;Max_cycle;Signal;HPM_P1;HPM_P2
2023/11/20 00:00:13;;;;;;;11.97;4.53;;;;;;;;;;5067740;28;20404;-91
2023/11/20 00:02:47;;;;;;;10.40;5.80;;;;;;;;;;5066295;28;20473;-91
2023/11/20 00:05:14;;;;;;;14.37;5.10;;;;;;;;;;5065224;28;20473;-91
2023/11/20 00:07:42;;;;;;;13.83;5.50;;;;;;;;;;5075144;28;20436;-91
2023/11/20 00:10:13;;;;;;;16.40;5.47;;;9.50;99.90;;;;;;5069035;28;20449;-91
2023/11/20 00:12:40;;;;;;;10.00;5.50;;;;;;;;;;5066895;28;20424;-90
2023/11/20 00:15:08;;;;;;;11.70;5.70;;;;;;;;;;5067393;28;20492;-91
2023/11/20 00:17:35;;;;;;;12.77;4.80;;;;;;;;;;5065156;28;20476;-91
2023/11/20 00:20:07;;;;;;;12.60;5.57;;;;;;;;;;5064253;28;20443;-91
2023/11/20 00:22:39;;;;;;;12.43;6.03;;;;;;;;;;5075330;28;20424;-89
2023/11/20 00:25:08;;;;;;;12.77;5.27;;;;;;;;;;5079770;28;20421;-88
2023/11/20 00:27:45;;;;;;;13.57;5.63;;;;;;;;;;5076832;28;20484;-91
2023/11/20 00:30:14;;;;;;;12.60;5.50;;;;;;;;;;5075617;28;20472;-91
2023/11/20 00:32:42;;;;;;;13.97;5.77;;;;;;;;;;5075225;28;20426;-89
2023/11/20 00:35:16;;;;;;;7.07;4.77;;;;;;;;;;5077762;28;20473;-92
2023/11/20 00:37:45;;;;;;;14.13;5.93;;;;;;;;;;5079608;28;20433;-89
2023/11/20 00:40:13;;;;;;;10.33;5.50;;;;;;;;;;5079576;28;20388;-88
2023/11/20 00:42:43;;;;;;;14.10;5.70;;;;;;;;;;5079524;28;20465;-87
2023/11/20 00:45:09;;;;;;;16.10;5.33;;;;;;;;;;5079499;28;20445;-88
2023/11/20 00:47:37;;;;;;;9.73;5.43;;;;;;;;;;5079349;28;20433;-86
2023/11/20 00:50:05;;;;;;;10.20;5.53;;;;;;;;;;5079339;28;20392;-87
2023/11/20 00:52:35;;;;;;;13.43;5.37;;;;;;;;;;5079151;28;20508;-88
2023/11/20 00:55:09;;;;;;;25.23;5.80;;;;;;;;;;5079036;28;20468;-88
2023/11/20 00:57:37;;;;;;;10.67;4.77;;;;;;;;;;5074536;28;20441;-90
2023/11/20 01:00:06;;;;;;;13.30;5.50;;;9.40;99.90;;;;;;5069887;28;20532;-90
2023/11/20 01:02:33;;;;;;;10.80;5.40;;;9.40;99.90;;;;;;5068858;28;20517;-90
2023/11/20 01:05:00;;;;;;;12.30;5.10;;;;;;;;;;5064618;28;20565;-90
2023/11/20 01:07:27;;;;;;;11.97;5.33;;;9.40;99.90;;;;;;5064239;28;20469;-90
2023/11/20 01:09:55;;;;;;;13.33;4.60;;;9.40;99.90;;;;;;5060515;28;20620;-91
2023/11/20 01:12:24;;;;;;;13.13;5.30;;;;;;;;;;5060198;28;20529;-91
2023/11/20 01:14:51;;;;;;;15.63;5.57;;;;;;;;;;5062857;28;20465;-91
2023/11/20 01:17:21;;;;;;;11.43;4.90;;;9.30;99.90;;;;;;5063964;28;20473;-90
2023/11/20 01:19:48;;;;;;;11.47;5.27;;;;;;;;;;5062846;28;20433;-91
2023/11/20 01:22:15;;;;;;;17.60;5.03;;;;;;;;;;5060421;28;20513;-91
2023/11/20 01:24:44;;;;;;;15.13;5.77;;;;;;;;;;5059442;28;20501;-91
2023/11/20 01:27:13;;;;;;;16.70;4.43;;;;;;;;;;5063671;28;20465;-91
2023/11/20 01:29:43;;;;;;;13.53;4.47;;;;;;;;;;5065759;28;20422;-90
2023/11/20 01:32:21;;;;;;;16.83;5.33;;;;;;;;;;5061060;28;20522;-91
2023/11/20 01:34:51;;;;;;;13.03;5.43;;;;;;;;;;5062975;28;20484;-91
2023/11/20 01:37:19;;;;;;;10.03;4.50;;;;;;;;;;5069462;28;20430;-91
2023/11/20 01:39:48;;;;;;;12.97;5.10;;;;;;;;;;5064821;28;20536;-91
2023/11/20 01:42:22;;;;;;;14.50;5.90;;;;;;;;;;5063162;28;20481;-91
2023/11/20 01:44:53;;;;;;;11.77;3.97;;;;;;;;;;5062431;28;20540;-91
2023/11/20 01:47:22;;;;;;;8.80;3.90;;;;;;;;;;5059576;28;20479;-91
2023/11/20 01:49:49;;;;;;;10.00;4.60;;;;;;;;;;5060218;28;20453;-91
2023/11/20 01:52:21;;;;;;;9.03;3.73;;;9.20;99.90;;;;;;5059531;28;20789;-91
2023/11/20 01:54:48;;;;;;;8.00;3.30;;;;;;;;;;5060235;28;20461;-91
2023/11/20 01:57:15;;;;;;;10.67;4.17;;;;;;;;;;5064298;28;20445;-91
2023/11/20 01:59:46;;;;;;;7.47;3.70;;;;;;;;;;5077902;28;20440;-90
2023/11/20 02:02:13;;;;;;;10.43;3.50;;;;;;;;;;5071178;28;20516;-90
2023/11/20 02:04:41;;;;;;;8.63;3.73;;;;;;;;;;5060377;28;20451;-90
2023/11/20 02:07:08;;;;;;;10.47;4.10;;;;;;;;;;5060111;28;20521;-90
2023/11/20 02:09:36;;;;;;;8.27;3.50;;;;;;;;;;5059887;28;20492;-90
2023/11/20 02:12:03;;;;;;;7.47;3.10;;;;;;;;;;5061277;28;20463;-90
2023/11/20 02:14:31;;;;;;;5.00;2.93;;;9.20;99.90;;;;;;5069106;28;20481;-90
2023/11/20 02:17:02;;;;;;;5.13;3.43;;;;;;;;;;5058818;28;20449;-90
2023/11/20 02:19:29;;;;;;;11.03;4.30;;;;;;;;;;5059427;28;20449;-90
2023/11/20 02:21:57;;;;;;;5.13;2.60;;;;;;;;;;5060248;28;20495;-90
2023/11/20 02:24:26;;;;;;;6.80;3.30;;;;;;;;;;5059731;28;20480;-90
2023/11/20 02:27:03;;;;;;;7.70;3.60;;;9.20;99.90;;;;;;5060358;28;20433;-90
2023/11/20 02:29:52;;;;;;;9.90;3.07;;;9.20;99.90;;;;;;5075110;28;20437;-90
2023/11/20 02:32:19;;;;;;;10.50;3.50;;;;;;;;;;5077513;28;20389;-89
2023/11/20 02:34:46;;;;;;;5.13;2.97;;;;;;;;;;5078495;28;20443;-90
2023/11/20 02:37:14;;;;;;;8.10;4.13;;;;;;;;;;5078881;28;20420;-90
2023/11/20 02:39:41;;;;;;;8.33;3.00;;;;;;;;;;5078839;28;20468;-91
2023/11/20 02:42:10;;;;;;;13.13;3.43;;;;;;;;;;5078664;28;20477;-90
2023/11/20 02:44:40;;;;;;;8.87;3.97;;;;;;;;;;5078509;28;20464;-90
2023/11/20 02:47:11;;;;;;;12.20;3.70;;;;;;;;;;5073537;28;20940;-91
2023/11/20 02:49:38;;;;;;;6.23;3.10;;;;;;;;;;5078780;28;20400;-91
2023/11/20 02:52:11;;;;;;;8.97;3.70;;;;;;;;;;5071162;28;20514;-90
2023/11/20 02:54:44;;;;;;;14.77;3.67;;;;;;;;;;5072391;28;20452;-91
2023/11/20 02:57:11;;;;;;;4.30;2.97;;;;;;;;;;5066372;28;21050;-91
2023/11/20 02:59:38;;;;;;;12.47;3.40;;;;;;;;;;5065139;28;20445;-91
2023/11/20 03:02:09;;;;;;;2.77;2.43;;;;;;;;;;5064607;28;20989;-91
2023/11/20 03:04:37;;;;;;;6.03;2.97;;;9.30;99.90;;;;;;5066202;28;20469;-91
2023/11/20 03:07:22;;;;;;;8.47;2.90;;;;;;;;;;5074454;28;20421;-91
2023/11/20 03:09:51;;;;;;;4.70;2.93;;;;;;;;;;5073156;28;20438;-91
2023/11/20 03:12:20;;;;;;;4.27;3.00;;;9.30;99.90;;;;;;5075723;28;20432;-88
2023/11/20 03:14:47;;;;;;;7.90;2.83;;;;;;;;;;5081307;28;20462;-87
2023/11/20 03:17:23;;;;;;;8.70;3.47;;;;;;;;;;5081178;28;20418;-87
2023/11/20 03:19:52;;;;;;;6.63;2.80;;;;;;;;;;5076294;28;20389;-89
2023/11/20 03:22:19;;;;;;;3.60;2.40;;;;;;;;;;5080518;28;20463;-90
2023/11/20 03:24:53;;;;;;;7.87;2.57;;;;;;;;;;5073517;28;20946;-91
2023/11/20 03:27:20;;;;;;;2.93;2.33;;;;;;;;;;5067847;28;20434;-90
2023/11/20 03:29:48;;;;;;;3.80;2.80;;;;;;;;;;5065656;28;20472;-90
2023/11/20 03:32:15;;;;;;;4.30;2.70;;;;;;;;;;5069636;28;20417;-90
2023/11/20 03:34:46;;;;;;;6.03;3.70;;;9.30;99.90;;;;;;5080713;28;20462;-88
2023/11/20 03:37:15;;;;;;;7.60;3.10;;;9.30;99.90;;;;;;5080770;28;20392;-87
2023/11/20 03:39:42;;;;;;;4.90;3.50;;;;;;;;;;5080521;28;20477;-88
2023/11/20 03:42:08;;;;;;;6.87;3.10;;;9.30;99.90;;;;;;5079787;28;20434;-91
2023/11/20 03:44:36;;;;;;;4.77;2.90;;;;;;;;;;5067736;28;20476;-91
2023/11/20 03:47:03;;;;;;;4.50;3.40;;;9.30;99.90;;;;;;5064561;28;20461;-91
2023/11/20 03:49:30;;;;;;;15.10;3.57;;;;;;;;;;5075698;28;20414;-90
2023/11/20 03:52:00;;;;;;;7.40;3.97;;;9.10;99.90;;;;;;5075516;28;20514;-91
2023/11/20 03:54:29;;;;;;;2.80;2.40;;;;;;;;;;5065179;28;20497;-91
2023/11/20 03:56:59;;;;;;;6.43;2.80;;;;;;;;;;5066513;28;20430;-91
2023/11/20 03:59:26;;;;;;;3.73;2.63;;;;;;;;;;5066074;28;20445;-91
2023/11/20 04:01:55;;;;;;;6.03;3.80;;;;;;;;;;5066035;28;20437;-90
2023/11/20 04:04:23;;;;;;;5.43;3.40;;;;;;;;;;5063248;28;20487;-91
2023/11/20 04:06:51;;;;;;;5.47;3.20;;;;;;;;;;5070236;28;20437;-92
2023/11/20 04:09:19;;;;;;;8.80;3.70;;;;;;;;;;5064218;28;20469;-90
2023/11/20 04:11:48;;;;;;;4.93;2.77;;;;;;;;;;5062770;28;20449;-91
2023/11/20 04:17:23;;;;;;;11.93;3.80;;;;;;;;;;5044584;28;20426;-90
2023/11/20 04:19:56;;;;;;;5.37;3.10;;;;;;;;;;5058945;28;20409;-92
2023/11/20 04:23:25;;;;;;;7.37;3.83;;;9.30;99.90;;;;;;5059744;28;20401;-89
2023/11/20 04:28:56;;;;;;;5.30;3.17;;;;;;;;;;4979899;28;20458;-91
2023/11/20 04:31:55;;;;;;;8.40;3.07;;;9.30;99.90;;;;;;4972583;29;20442;-92
2023/11/20 04:35:07;;;;;;;5.27;3.10;;;9.30;99.90;;;;;;4965001;28;20546;-91
2023/11/20 04:37:48;;;;;;;11.33;3.23;;;;;;;;;;4969431;28;20461;-91
2023/11/20 05:27:12;;;;;;;9.20;4.03;;;;;;;;;;4937041;28;20452;-92
2023/11/20 05:29:40;;;;;;;5.27;4.30;;;;;;;;;;5004301;28;20975;-92
2023/11/20 05:32:10;;;;;;;8.70;4.30;;;;;;;;;;5005082;28;20457;-90
2023/11/20 05:37:37;;;;;;;8.57;5.20;;;;;;;;;;5012088;28;20447;-89
2023/11/20 05:40:07;;;;;;;7.50;5.60;;;;;;;;;;5018997;28;20424;-92
2023/11/20 05:48:54;;;;;;;8.30;6.60;;;9.30;99.90;;;;;;5280536;22;20519;-90
2023/11/20 05:54:54;;;;;;;9.83;5.60;;;;;;;;;;5002376;28;20463;-90
2023/11/20 05:57:22;;;;;;;9.10;5.37;;;9.30;99.90;;;;;;5018299;28;20434;-88
2023/11/20 05:59:49;;;;;;;9.30;5.87;;;;;;;;;;5014900;28;20419;-87
2023/11/20 06:02:16;;;;;;;11.00;5.80;;;9.30;99.90;;;;;;5012688;28;20472;-86
2023/11/20 06:04:44;;;;;;;12.07;6.87;;;9.30;99.90;;;;;;5016761;28;20488;-86
2023/11/20 06:07:12;;;;;;;10.50;6.53;;;9.30;99.90;;;;;;5014152;28;20479;-87
2023/11/20 06:09:41;;;;;;;11.63;7.57;;;9.20;99.90;;;;;;5007283;28;20459;-89
2023/11/20 06:12:10;;;;;;;8.50;6.10;;;9.30;99.90;;;;;;5005777;28;20968;-89
2023/11/20 06:14:37;;;;;;;11.10;6.33;;;9.30;99.90;;;;;;5005510;28;20450;-89
2023/11/20 06:17:25;;;;;;;11.87;6.90;;;9.40;99.90;;;;;;5010702;28;20425;-86
2023/11/20 06:20:16;;;;;;;17.30;6.97;;;;;;;;;;5021819;28;20436;-90
2023/11/20 06:22:46;;;;;;;8.53;5.93;;;;;;;;;;5015039;28;20455;-91
2023/11/20 06:28:22;;;;;;;5.43;4.70;;;;;;;;;;5012149;28;20418;-89
2023/11/20 06:34:51;;;;;;;6.87;5.60;;;;;;;;;;4990727;28;20575;-89
2023/11/20 06:37:35;;;;;;;13.17;5.97;;;;;;;;;;5016508;28;20415;-87
2023/11/20 06:43:36;;;;;;;;;;;;;;;;;;;;;
2023/11/20 06:46:47;;;;;;;5.80;5.20;;;9.40;99.90;;;;;;5014463;28;20405;-90
2023/11/20 06:52:01;;;;;;;11.57;6.17;;;;;;;;;;4947568;28;20537;-86
2023/11/20 06:54:42;;;;;;;7.63;6.07;;;9.50;99.90;;;;;;5006640;28;20456;-90
2023/11/20 06:57:20;;;;;;;;;;;;;;;;;;;;;
2023/11/20 07:03:05;;;;;;;11.80;6.50;;;;;;;;;;4956727;28;21012;-89
2023/11/20 07:05:40;;;;;;;7.50;5.90;;;9.50;99.90;;;;;;5018828;28;20476;-88
2023/11/20 07:09:11;;;;;;;;;;;;;;;;;;;;;
2023/11/20 07:37:04;;;;;;;6.47;5.70;;;9.70;99.90;;;;;;5000376;28;20482;-89
2023/11/20 07:54:41;;;;;;;20.07;13.60;;;9.80;99.90;;;;;;4804839;29;20591;-89
2023/11/20 08:17:17;;;;;;;9.57;5.00;;;9.80;99.90;;;;;;4931538;29;20490;-90
2023/11/20 08:19:54;;;;;;;4.93;4.43;;;;;;;;;;4959405;28;20452;-90
2023/11/20 08:22:31;;;;;;;8.03;5.53;;;;;;;;;;5000671;28;20474;-90
2023/11/20 08:24:58;;;;;;;7.60;6.03;;;;;;;;;;4999191;28;20544;-90
2023/11/20 08:30:37;;;;;;;7.93;5.93;;;9.80;99.90;;;;;;4997359;28;20844;-89
2023/11/20 08:36:19;;;;;;;7.70;6.67;;;;;;;;;;4928961;29;20456;-90
2023/11/20 08:44:55;;;;;;;8.83;7.20;;;;;;;;;;4935163;29;20497;-89
2023/11/20 08:50:34;;;;;;;7.67;5.80;;;;;;;;;;4998824;28;20446;-90
2023/11/20 08:53:16;;;;;;;8.40;5.30;;;;;;;;;;5000091;28;20448;-89
2023/11/20 08:55:57;;;;;;;7.10;5.70;;;;;;;;;;5000732;28;20499;-90
2023/11/20 08:58:31;;;;;;;7.20;5.80;;;;;;;;;;5012441;28;20403;-89
2023/11/20 09:01:20;;;;;;;7.20;5.23;;;;;;;;;;5019012;28;20413;-89
2023/11/20 09:03:59;;;;;;;5.70;5.10;;;;;;;;;;5011328;28;20486;-88
2023/11/20 09:06:37;;;;;;;9.07;5.00;;;10.00;99.90;;;;;;5001187;28;20490;-89
2023/11/20 09:09:50;;;;;;;5.20;4.40;;;10.10;99.90;;;;;;5000388;28;20448;-89
2023/11/20 09:12:22;;;;;;;8.00;4.97;;;;;;;;;;5000841;28;20472;-89
2023/11/20 09:15:12;;;;;;;6.37;5.17;;;;;;;;;;5008246;28;20479;-89
2023/11/20 09:21:13;;;;;;;6.23;5.10;;;10.10;99.90;;;;;;5005275;28;20532;-88
2023/11/20 09:45:46;;;;;;;9.67;5.50;;;10.20;99.90;;;;;;4883110;29;20520;-89
2023/11/20 09:49:04;;;;;;;9.47;6.27;;;10.20;99.90;;;;;;4949097;29;20459;-89
2023/11/20 09:55:02;;;;;;;11.33;7.80;;;;;;;;;;4956101;28;20458;-89
2023/11/20 09:57:35;;;;;;;7.97;5.97;;;;;;;;;;5013454;28;20464;-89
2023/11/20 10:00:11;;;;;;;9.13;6.37;;;;;;;;;;5011359;28;20448;-90
2023/11/20 10:02:51;;;;;;;9.43;6.70;;;10.40;99.90;;;;;;5005152;28;20502;-90
2023/11/20 10:05:58;;;;;;;10.43;7.60;;;10.40;99.90;;;;;;5006536;28;20936;-90
2023/11/20 10:09:12;;;;;;;10.70;7.47;;;10.40;99.90;;;;;;5001596;28;20514;-90
2023/11/20 10:12:06;;;;;;;11.60;8.23;;;10.40;99.90;;;;;;4994793;28;20448;-89
2023/11/20 10:17:43;;;;;;;9.37;7.83;;;10.40;99.90;;;;;;5005810;28;20483;-90
2023/11/20 10:20:52;;;;;;;7.43;5.70;;;10.40;99.90;;;;;;5009175;28;21020;-88
2023/11/20 10:24:05;;;;;;;11.93;7.70;;;10.40;99.90;;;;;;5017166;28;20451;-89
2023/11/20 10:26:43;;;;;;;9.30;6.80;;;;;;;;;;5016697;28;20511;-90
2023/11/20 10:29:42;;;;;;;;;;;;;;;;;;;;;
2023/11/20 10:32:19;;;;;;;8.73;6.00;;;;;;;;;;5005874;28;20480;-89
2023/11/20 10:38:18;;;;;;;7.80;6.30;;;;;;;;;;5001318;28;20436;-90
2023/11/20 10:41:09;;;;;;;7.60;6.90;;;;;;;;;;5007955;28;20443;-90
2023/11/20 10:47:07;;;;;;;8.50;6.50;;;10.80;99.90;;;;;;5006062;28;20519;-89
2023/11/20 10:50:31;;;;;;;12.33;7.33;;;11.00;99.90;;;;;;5006216;28;20470;-91
2023/11/20 10:53:36;;;;;;;9.10;6.30;;;11.30;99.90;;;;;;4962491;29;20468;-90
2023/11/20 10:56:18;;;;;;;8.30;6.40;;;11.20;99.90;;;;;;4894599;29;20463;-90
2023/11/20 11:02:01;;;;;;;6.23;4.93;;;;;;;;;;4997517;28;20891;-90
2023/11/20 11:07:44;;;;;;;13.80;9.80;;;;;;;;;;5004499;28;20468;-90
2023/11/20 11:13:55;;;;;;;8.50;5.77;;;10.60;99.90;;;;;;5003814;28;20462;-90
2023/11/20 11:26:05;;;;;;;11.30;8.37;;;10.60;99.90;;;;;;4992145;28;20999;-88
2023/11/20 11:29:16;;;;;;;12.00;6.00;;;10.60;99.90;;;;;;5013288;28;20965;-89
2023/11/20 11:32:28;;;;;;;9.97;7.67;;;10.60;99.90;;;;;;4979285;29;20448;-89
2023/11/20 11:39:01;;;;;;;9.33;8.23;;;10.60;99.90;;;;;;4963522;29;20493;-90
2023/11/20 11:42:01;;;;;;;8.53;7.47;;;10.60;99.90;;;;;;4964724;29;20425;-90
2023/11/20 11:45:30;;;;;;;10.17;6.90;;;10.60;99.90;;;;;;4959013;29;20864;-90
2023/11/20 11:48:36;;;;;;;10.13;7.83;;;10.60;99.90;;;;;;5005309;28;20459;-90
2023/11/20 11:51:50;;;;;;;10.03;8.30;;;10.60;99.90;;;;;;5013391;28;20451;-89
2023/11/20 11:54:43;;;;;;;10.30;7.77;;;;;;;;;;5019065;28;20484;-90
2023/11/20 11:57:46;;;;;;;14.20;8.80;;;10.60;99.90;;;;;;5010053;28;20452;-90
2023/11/20 12:03:53;;;;;;;13.07;8.00;;;10.60;99.90;;;;;;5006673;23;20570;-91
2023/11/20 12:06:37;;;;;;;9.57;6.80;;;;;;;;;;4985506;28;20544;-90
2023/11/20 12:09:13;;;;;;;7.53;5.83;;;;;;;;;;4983845;28;20457;-91
2023/11/20 12:19:00;;;;;;;6.00;5.13;;;10.70;99.90;;;;;;4996000;28;20449;-88
2023/11/20 12:21:38;;;;;;;10.53;5.50;;;;;;;;;;5000620;28;20476;-88
2023/11/20 12:24:22;;;;;;;7.07;5.27;;;10.70;99.90;;;;;;4994622;28;20946;-91
2023/11/20 12:30:16;;;;;;;4.87;4.20;;;;;;;;;;4994748;28;20453;-91
2023/11/20 12:33:17;;;;;;;10.13;5.87;;;10.70;99.90;;;;;;4988548;28;20481;-92
2023/11/20 12:36:18;;;;;;;5.70;5.03;;;10.70;99.90;;;;;;4994954;28;20504;-91
2023/11/20 12:39:19;;;;;;;;;;;;;;;;;;;;;
2023/11/20 12:42:21;;;;;;;6.17;4.93;;;10.80;99.90;;;;;;4987504;28;20583;-90
2023/11/20 12:45:11;;;;;;;9.30;5.10;;;10.80;99.90;;;;;;4996072;28;20860;-90
2023/11/20 12:48:00;;;;;;;6.50;5.43;;;;;;;;;;4988735;28;20441;-92
2023/11/20 12:54:03;;;;;;;7.30;5.87;;;;;;;;;;4981754;28;20451;-90
2023/11/20 12:56:55;;;;;;;7.30;5.20;;;;;;;;;;4984498;28;20434;-90
2023/11/20 12:59:36;;;;;;;6.77;5.57;;;;;;;;;;4988802;28;20453;-91
2023/11/20 13:05:07;;;;;;;11.60;6.93;;;;;;;;;;4925031;29;20870;-91
2023/11/20 13:07:50;;;;;;;8.23;5.20;;;;;;;;;;4972858;28;20472;-91
2023/11/20 13:10:30;;;;;;;4.50;4.10;;;;;;;;;;4980481;28;20453;-91
2023/11/20 13:16:26;;;;;;;4.53;3.70;;;10.80;99.90;;;;;;4988269;28;20443;-90
2023/11/20 13:19:24;;;;;;;6.23;5.70;;;10.90;99.90;;;;;;4999178;28;20495;-89
2023/11/20 13:27:20;;;;;;;4.87;3.87;;;;;;;;;;5133827;23;20486;-88
2023/11/20 13:33:09;;;;;;;7.77;4.00;;;;;;;;;;5036354;28;20494;-88
2023/11/20 13:35:44;;;;;;;5.23;4.00;;;;;;;;;;5036523;28;20439;-92
2023/11/20 13:38:17;;;;;;;4.43;3.77;;;;;;;;;;5026755;28;20458;-92
2023/11/20 13:40:56;;;;;;;3.80;3.17;;;;;;;;;;5037238;28;20445;-91
2023/11/20 13:43:44;;;;;;;3.40;3.10;;;10.90;99.90;;;;;;5037080;28;20469;-91
2023/11/20 13:49:10;;;;;;;3.67;3.37;;;;;;;;;;5023994;28;20443;-91
2023/11/20 13:52:01;;;;;;;5.80;4.50;;;10.90;99.90;;;;;;5023187;28;20487;-91
2023/11/20 13:54:35;;;;;;;4.87;4.10;;;;;;;;;;5019906;28;20434;-90
2023/11/20 13:57:10;;;;;;;5.00;3.63;;;;;;;;;;5019217;28;20450;-90
2023/11/20 13:59:42;;;;;;;6.40;3.63;;;;;;;;;;5019038;28;20470;-90
2023/11/20 14:02:28;;;;;;;3.70;3.40;;;10.80;71.10;;;;;;5021179;28;21101;-92
2023/11/20 14:05:14;;;;;;;5.10;3.53;;;;;;;;;;5021375;28;20446;-90
2023/11/20 14:10:34;;;;;;;4.40;4.00;;;;;;;;;;5011429;28;20447;-90
2023/11/20 14:13:17;;;;;;;4.93;4.07;;;;;;;;;;5021725;28;20573;-90
2023/11/20 14:15:58;;;;;;;6.50;4.17;;;;;;;;;;5022578;28;20402;-90
2023/11/20 14:18:32;;;;;;;5.27;3.90;;;;;;;;;;5019151;28;20526;-91
2023/11/20 14:21:01;;;;;;;6.37;4.87;;;;;;;;;;5019343;28;20870;-91
2023/11/20 14:23:40;;;;;;;6.10;4.00;;;;;;;;;;5025201;28;20459;-90
2023/11/20 14:26:27;;;;;;;5.97;4.00;;;;;;;;;;5027442;28;20463;-89
2023/11/20 14:29:03;;;;;;;3.97;3.57;;;;;;;;;;5030844;28;20932;-91
2023/11/20 14:31:47;;;;;;;5.40;4.10;;;;;;;;;;5026120;28;20454;-90
2023/11/20 14:34:22;;;;;;;5.20;4.43;;;;;;;;;;5024225;28;20522;-91
2023/11/20 14:37:04;;;;;;;6.57;3.53;;;10.80;53.70;;;;;;5024957;28;20425;-90
2023/11/20 14:39:48;;;;;;;3.67;3.20;;;;;;;;;;5024480;28;20467;-92
2023/11/20 14:42:27;;;;;;;4.57;4.13;;;;;;;;;;5025786;28;20493;-90
2023/11/20 14:48:24;;;;;;;3.37;3.07;;;;;;;;;;5024372;28;20925;-91
2023/11/20 14:51:18;;;;;;;;;;;;;;;;;;;;;
2023/11/20 14:54:08;;;;;;;3.87;3.43;;;10.80;46.70;;;;;;5023909;28;20988;-90
2023/11/20 14:56:39;;;;;;;3.40;2.60;;;;;;;;;;5027128;28;20447;-91
2023/11/20 14:59:29;;;;;;;3.77;3.33;;;;;;;;;;5028118;28;20950;-92
2023/11/20 15:02:11;;;;;;;4.00;3.60;;;;;;;;;;5032677;28;20473;-90
2023/11/20 15:05:13;;;;;;;4.80;4.10;;;10.70;88.10;;;;;;5040137;28;20401;-89
2023/11/20 15:13:18;;;;;;;7.97;6.80;;;;;;;;;;5401335;23;21238;-91
2023/11/20 15:15:57;;;;;;;5.20;4.70;;;;;;;;;;5052212;28;20510;-90
2023/11/20 15:18:33;;;;;;;5.93;5.20;;;;;;;;;;5045078;28;20438;-91
2023/11/20 15:21:11;;;;;;;6.50;5.07;;;;;;;;;;5043265;28;20498;-91
2023/11/20 15:32:12;;;;;;;7.10;5.37;;;10.70;99.90;;;;;;2185204;23;21425;-89
2023/11/20 15:35:43;;;;;;;;;;;;;;;;;;;;;
2023/11/20 15:54:16;;;;;;;8.90;5.40;;;10.60;99.90;;;;;;4984326;28;20442;-89
2023/11/20 16:05:24;;;;;;;10.83;7.60;;;;;;;;;;4710054;26;20455;-88
2023/11/20 16:07:51;;;;;;;8.90;8.00;;;;;;;;;;5039923;28;20490;-88
2023/11/20 16:10:42;;;;;;;8.80;7.03;;;;;;;;;;5038593;28;20451;-90
2023/11/20 16:13:28;;;;;;;10.90;8.10;;;;;;;;;;5039141;28;20474;-90
2023/11/20 16:16:04;;;;;;;13.03;8.63;;;;;;;;;;5038135;28;20435;-91
2023/11/20 16:18:36;;;;;;;8.67;7.00;;;;;;;;;;5025360;28;20458;-90
2023/11/20 16:21:08;;;;;;;10.20;7.67;;;;;;;;;;5023040;28;20841;-90
2023/11/20 16:23:45;;;;;;;9.53;7.67;;;10.50;99.90;;;;;;5021512;28;20475;-91
2023/11/20 16:32:24;;;;;;;12.77;7.40;;;;;;;;;;5018592;28;20908;-90
2023/11/20 16:37:36;;;;;;;9.60;6.77;;;;;;;;;;5005938;28;20519;-91
2023/11/20 16:40:22;;;;;;;9.63;8.13;;;10.40;99.90;;;;;;5021365;28;20489;-91
2023/11/20 16:45:31;;;;;;;9.90;7.50;;;;;;;;;;1416697;26;21356;-91
2023/11/20 16:48:13;;;;;;;6.90;5.97;;;10.40;99.90;;;;;;5027301;28;20521;-91
2023/11/20 16:50:48;;;;;;;11.60;7.57;;;;;;;;;;5022748;28;20478;-91
2023/11/20 16:53:29;;;;;;;10.43;7.83;;;;;;;;;;5021131;28;20452;-91
2023/11/20 17:11:49;;;;;;;9.83;7.00;;;;;;;;;;5012599;28;20456;-88
2023/11/20 17:14:25;;;;;;;8.83;7.33;;;;;;;;;;5016170;28;20524;-89
2023/11/20 17:17:59;;;;;;;9.63;6.97;;;10.00;99.90;;;;;;5014078;28;20403;-90
2023/11/20 17:27:05;;;;;;;7.03;6.17;;;;;;;;;;4974287;28;20524;-89
2023/11/20 17:33:19;;;;;;;7.63;6.20;;;10.20;99.90;;;;;;5011321;28;20487;-91
2023/11/20 17:42:39;;;;;;;6.37;4.80;;;;;;;;;;5011908;28;20424;-87
2023/11/20 17:48:40;;;;;;;7.37;4.93;;;;;;;;;;4949675;28;20460;-88
2023/11/20 18:02:04;;;;;;;;;;;;;;;;;;;;;
2023/11/20 18:28:28;;;;;;;8.00;3.57;;;;;;;;;;4826129;29;20444;-90
2023/11/20 18:38:29;;;;;;;3.03;2.43;;;9.60;99.90;;;;;;4799587;29;20544;-89
2023/11/20 18:41:00;;;;;;;2.80;2.60;;;;;;;;;;4880970;29;20449;-88
2023/11/20 18:43:31;;;;;;;3.10;2.30;;;;;;;;;;4981871;28;20456;-88
2023/11/20 18:46:01;;;;;;;5.13;3.70;;;;;;;;;;5009016;28;20432;-88
2023/11/20 18:48:28;;;;;;;2.90;2.53;;;;;;;;;;5008119;28;20472;-88
2023/11/20 18:50:55;;;;;;;4.17;3.10;;;;;;;;;;5006709;28;20510;-88
2023/11/20 18:53:22;;;;;;;9.90;4.13;;;;;;;;;;5005360;28;20467;-88
2023/11/20 18:55:50;;;;;;;3.47;3.07;;;;;;;;;;5005457;28;20453;-88
2023/11/20 18:58:17;;;;;;;4.00;3.50;;;;;;;;;;5005108;28;20464;-88
2023/11/20 19:00:52;;;;;;;6.60;4.03;;;;;;;;;;5006695;28;20434;-89
2023/11/20 19:03:20;;;;;;;6.03;3.60;;;;;;;;;;5014282;28;20407;-89
2023/11/20 19:05:47;;;;;;;5.77;3.67;;;;;;;;;;5020456;28;20459;-87
2023/11/20 19:08:32;;;;;;;6.10;3.67;;;9.30;99.90;;;;;;5021025;28;20483;-86
2023/11/20 19:10:59;;;;;;;5.70;3.30;;;;;;;;;;5019831;28;20425;-88
2023/11/20 19:13:26;;;;;;;6.70;3.83;;;;;;;;;;5008938;28;20463;-89
2023/11/20 19:15:55;;;;;;;7.50;3.63;;;;;;;;;;5006085;28;20792;-89
2023/11/20 19:18:23;;;;;;;8.00;4.10;;;9.30;99.90;;;;;;5007360;28;20563;-88
2023/11/20 19:20:51;;;;;;;4.23;3.83;;;;;;;;;;5014943;28;20448;-88
2023/11/20 19:23:18;;;;;;;12.60;6.57;;;;;;;;;;5017832;28;20456;-90
2023/11/20 19:25:45;;;;;;;19.60;10.13;;;;;;;;;;5011774;28;20448;-88
2023/11/20 19:28:12;;;;;;;13.63;6.50;;;9.20;99.90;;;;;;5009392;28;20469;-87
2023/11/20 19:30:39;;;;;;;5.97;3.43;;;9.10;99.90;;;;;;5019932;28;20452;-87
2023/11/20 19:33:09;;;;;;;6.70;4.53;;;9.60;99.90;;;;;;5018350;28;20423;-88
2023/11/20 19:35:37;;;;;;;10.20;5.33;;;9.30;99.90;;;;;;5008230;28;20411;-87
2023/11/20 19:38:04;;;;;;;7.63;4.90;;;9.10;99.90;;;;;;5007743;28;20471;-90
2023/11/20 19:40:31;;;;;;;3.87;3.40;;;;;;;;;;5012496;28;20476;-89
2023/11/20 19:42:58;;;;;;;6.37;3.67;;;9.10;99.90;;;;;;5009758;28;20478;-89
2023/11/20 19:45:26;;;;;;;6.07;4.20;;;9.10;99.90;;;;;;5017155;28;20450;-88
2023/11/20 19:47:54;;;;;;;6.20;3.90;;;9.10;99.90;;;;;;5019978;28;20460;-88
2023/11/20 19:50:22;;;;;;;4.33;3.67;;;9.10;99.90;;;;;;5008436;28;20753;-89
2023/11/20 19:52:49;;;;;;;7.73;4.87;;;9.10;99.90;;;;;;5003624;28;20429;-89
2023/11/20 19:55:16;;;;;;;6.90;4.30;;;9.10;99.90;;;;;;5010214;28;20511;-87
2023/11/20 19:57:45;;;;;;;5.40;3.83;;;9.50;99.90;;;;;;5006505;28;20471;-88
2023/11/20 20:00:13;;;;;;;7.00;3.70;;;9.10;99.90;;;;;;5005730;28;20456;-86
2023/11/20 20:02:40;;;;;;;4.73;3.63;;;9.10;99.90;;;;;;5015907;28;20460;-84
2023/11/20 20:05:07;;;;;;;6.20;3.53;;;9.20;99.90;;;;;;5019835;28;20440;-88
2023/11/20 20:07:35;;;;;;;3.30;3.00;;;9.30;99.90;;;;;;5007760;28;20519;-87
2023/11/20 20:10:02;;;;;;;7.77;2.90;;;9.00;99.90;;;;;;5004173;28;20463;-87
2023/11/20 20:12:29;;;;;;;5.97;3.33;;;9.00;99.90;;;;;;5004531;28;20511;-86
2023/11/20 20:14:56;;;;;;;4.57;3.33;;;9.00;99.90;;;;;;5003980;28;20460;-88
2023/11/20 20:17:23;;;;;;;4.60;3.00;;;8.90;99.90;;;;;;5004978;28;20448;-88
2023/11/20 20:19:50;;;;;;;5.43;3.37;;;9.00;99.90;;;;;;5005277;28;20476;-88
2023/11/20 20:22:19;;;;;;;4.10;2.80;;;8.90;99.90;;;;;;5004949;28;20874;-88
2023/11/20 20:24:47;;;;;;;4.93;3.07;;;8.90;99.90;;;;;;5006057;28;20539;-89
2023/11/20 20:27:14;;;;;;;5.27;2.90;;;8.70;99.90;;;;;;5004387;28;20484;-88
2023/11/20 20:29:48;;;;;;;3.10;2.80;;;8.80;99.90;;;;;;5003852;28;20450;-89
2023/11/20 20:32:31;;;;;;;2.93;2.33;;;8.50;99.90;;;;;;5004823;28;20403;-91
2023/11/20 20:35:19;;;;;;;4.00;3.30;;;8.80;99.90;;;;;;5003561;28;20456;-89
2023/11/20 20:37:51;;;;;;;4.10;2.67;;;;;;;;;;4968843;28;20464;-92
2023/11/20 20:40:23;;;;;;;3.17;2.50;;;;;;;;;;5016254;28;20467;-91
2023/11/20 20:43:00;;;;;;;4.50;2.60;;;;;;;;;;5011949;28;20419;-92
2023/11/20 20:45:36;;;;;;;4.37;2.87;;;;;;;;;;5010417;28;20402;-92
2023/11/20 20:48:05;;;;;;;4.00;2.40;;;;;;;;;;5007603;28;20470;-89
2023/11/20 20:51:24;;;;;;;3.80;2.20;;;8.80;99.90;;;;;;5004218;28;20483;-92
2023/11/20 20:56:36;;;;;;;4.03;2.70;;;;;;;;;;4939016;29;20474;-87
2023/11/20 20:59:05;;;;;;;8.50;2.23;;;8.80;99.90;;;;;;4994347;28;20435;-90
2023/11/20 21:01:33;;;;;;;5.80;1.80;;;;;;;;;;5004307;28;20450;-90
2023/11/20 21:04:01;;;;;;;3.23;1.97;;;8.60;99.90;;;;;;5012539;28;20436;-89
2023/11/20 21:06:28;;;;;;;4.40;2.60;;;;;;;;;;5018859;28;20479;-89
2023/11/20 21:08:56;;;;;;;5.17;2.80;;;;;;;;;;5018930;28;20491;-92
2023/11/20 21:11:26;;;;;;;2.10;1.90;;;;;;;;;;5016691;28;20427;-90
2023/11/20 21:13:55;;;;;;;3.00;2.73;;;;;;;;;;5012428;28;20783;-90
2023/11/20 21:16:23;;;;;;;3.73;2.60;;;;;;;;;;5006446;28;20804;-90
2023/11/20 21:18:51;;;;;;;4.40;3.10;;;;;;;;;;5006739;28;20460;-90
2023/11/20 21:21:26;;;;;;;3.87;2.90;;;;;;;;;;5004136;28;20471;-90
2023/11/20 21:24:09;;;;;;;;;;;;;;;;;;;;;
2023/11/20 21:26:37;;;;;;;10.93;5.00;;;;;;;;;;5015896;28;20500;-89
2023/11/20 21:29:05;;;;;;;4.20;3.07;;;8.70;99.90;;;;;;5017689;28;20458;-87